ADDS METAR Data INFO
IDs: Format: Raw Decoded Include TAF

Data at: 0212 UTC 17 Aug 2018

PASC 170153Z 26019G24KT 10SM -RA FEW012 SCT032 OVC060 11/08 A2936 RMK AO2 SLP943 T01060083 PNO $
PASC 170053Z 24016G23KT 6SM -RA BR FEW021 SCT035 OVC055 11/09 A2937 RMK AO2 SLP946 T01060094 PNO $
PASC 170008Z 24015G19KT 6SM -RA BR FEW008 BKN011 OVC019 10/09 A2938 RMK AO2 T01000089 PNO $
PASC 162359Z 24014KT 10SM -RA FEW008 SCT012 OVC019 10/09 A2938 RMK AO2 T01000089 PNO $
PASC 162353Z 25016KT 10SM -RA BKN011 BKN019 OVC050 10/09 A2938 RMK AO2 PK WND 27026/2303 SLP951 6//// T01000089 10100 20078 58005 PNO $
PASC 162253Z 26018KT 10SM -RA BKN011 BKN016 OVC021 10/09 A2940 RMK AO2 SLP956 T01000089 PNO $
PASC 162153Z 26018KT 10SM -RA BKN011 BKN017 OVC028 09/08 A2939 RMK AO2 CIG 008V014 SLP955 T00940083 PNO $
PASC 162143Z 26016KT 10SM -RA BKN011 BKN016 OVC022 09/08 A2940 RMK AO2 T00940083 PNO $
PASC 162129Z 26017G22KT 10SM -RA FEW009 BKN022 OVC041 09/08 A2940 RMK AO2 T00940078 PNO $
PASC 162053Z 26017KT 6SM -RA BR SCT008 BKN039 OVC049 09/08 A2940 RMK AO2 SLP955 6//// T00890078 58012 PNO $
PASC 162037Z 26013KT 5SM -RA BR BKN008 BKN022 OVC036 09/08 A2940 RMK AO2 T00890078 PNO $
PASC 162030Z 26016KT 5SM RA BR SCT008 BKN028 OVC036 09/08 A2940 RMK AO2 T00890078 PNO $
PASC 161953Z 24012KT 8SM -RA BKN007 09/08 A2941 RMK AO2 SLP960 T00890078 PNO $
PASC 161853Z 25014KT 4SM -RA BR BKN006 OVC009 08/07 A2943 RMK AO2 RAB40 CIG 004V007 SLP965 T00830072 PNO $
PASC 161753Z 26015KT 8SM OVC007 08/07 A2943 RMK AO2 SLP968 6//// T00780067 10094 20067 50002 PNO $
PASC 161714Z 26016KT 10SM OVC007 07/07 A2944 RMK AO2 CIG 003V010 T00720067 PNO $
PASC 161655Z 26012KT 3SM BR OVC004 07/07 A2944 RMK AO2 T00720067 PNO $
PASC 161653Z 27011KT 2SM BR OVC004 07/07 A2944 RMK AO2 RAE24 SLP970 T00720067 PNO $
PASC 161553Z 28009KT 2SM -RA BR OVC005 07/06 A2944 RMK AO2 RAE36B52 SLP968 T00670061 PNO $
PASC 161453Z 30011KT 5SM -RA BR OVC005 07/06 A2943 RMK AO2 SLP966 6//// T00670061 52011 PNO $
PASC 161353Z 29010KT 7SM -RA OVC006 07/06 A2942 RMK AO2 CIG 004V009 SLP962 T00720061 PNO $
PASC 161253Z 27018KT 5SM -RA BR OVC007 09/08 A2941 RMK AO2 PK WND 26028/1227 RAB19 SLP958 P0001 T00890078
PASC 161211Z 27019G28KT 7SM OVC008 09/08 A2940 RMK AO2 PK WND 27028/1206 T00890078
PASC 161153Z 26022G27KT 10SM OVC010 09/08 A2940 RMK AO2 PK WND 26032/1115 CIG 007V014 SLP955 60000 70002 T00940078 10100 20089 53008
PASC 161127Z 26021G29KT 10SM BKN010 OVC014 09/08 A2939 RMK AO2 PK WND 26032/1115 CIG 007V012 T00940078
PASC 161053Z 26020KT 7SM OVC009 09/08 A2938 RMK AO2 PK WND 25029/1007 CIG 006V013 SLP951 T00940078
PASC 161046Z 26021G28KT 7SM OVC009 09/08 A2938 RMK AO2 PK WND 25029/1007 CIG 006V014 T00940083
PASC 161015Z 25021G29KT 5SM BR BKN013 OVC019 09/08 A2938 RMK AO2 PK WND 25029/1007 T00940078
PASC 160953Z 25021G32KT 10SM OVC020 10/07 A2937 RMK AO2 PK WND 25032/0946 RAE06 SLP947 P0000 T01000072
PASC 160853Z 24022G29KT 8SM -RA OVC025 09/07 A2937 RMK AO2 PK WND 23029/0851 RAB51 SLP947 P0000 60000 T00940067 401000017 56004
PASC 160753Z 24021G30KT 10SM OVC027 09/07 A2937 RMK AO2 PK WND 24032/0733 SLP947 T00940067
PASC 160653Z 24022G29KT 10SM OVC027 09/06 A2938 RMK AO2 PK WND 24031/0604 RAB00E26 SLP949 P0000 T00940061
PASC 160553Z 24024G32KT 10SM OVC026 09/06 A2939 RMK AO2 PK WND 24032/0545 RAE26 SLP951 P0000 60002 T00940056 10100 20083 58011
PASC 160453Z 23022G29KT 7SM -RA OVC026 09/06 A2940 RMK AO2 PK WND 24034/0407 RAE07B27 SLP955 P0002 T00890061
PASC 160353Z 24026G37KT 10SM -RA OVC024 09/06 A2941 RMK AO2 PK WND 24037/0342 SLP960 P0000 T00890061
PASC 160253Z AUTO 25025G34KT 10SM -RA OVC022 09/06 A2942 RMK AO2 PK WND 24034/0215 RAE0158B16 SLP962 P0000 60000 T00940061 56010 TSNO
PASC 160153Z 24024G31KT 10SM -RA OVC021 10/05 A2942 RMK AO2 PK WND 23037/0111 RAB0058 SLP962 P0000 T01000050
PASC 160053Z 24024G34KT 10SM OVC021 09/05 A2943 RMK AO2 PK WND 24038/0022 SLP968 T00890050
PASC 152353Z 24027G33KT 10SM OVC022 08/04 A2945 RMK AO2 PK WND 24039/2328 SLP972 60000 T00830044 10083 20050 56011
PASC 152253Z 24027G35KT 10SM OVC021 08/04 A2946 RMK AO2 PK WND 24039/2209 SLP976 T00780044
PASC 152153Z 23026G39KT 10SM OVC021 07/03 A2947 RMK AO2 PK WND 23039/2150 RAE19 SLP979 P0000 T00670033
PASC 152053Z 22027G34KT 9SM -RA OVC034 06/03 A2948 RMK AO2 PK WND 22034/2052 SLP983 P0000 60000 T00560033 58040
PASC 151953Z 23021G30KT 10SM -RA SCT033 OVC044 06/02 A2953 RMK AO2 PK WND 23033/1859 RAB1855 SLP999 P0000 T00560022
PASC 151853Z 23019G29KT 10SM BKN055 OVC065 06/01 A2956 RMK AO2 PK WND 23029/1848 SLP010 T00610011
PASC 151753Z 22023G28KT 10SM OVC095 06/01 A2960 RMK AO2 PK WND 23028/1753 SLP023 T00560006 10056 20017 58035
PASC 151653Z 22018G25KT 10SM OVC100 04/01 A2963 RMK AO2 SLP035 T00440006
PASC 151553Z 22016KT 10SM BKN120 04/01 A2967 RMK AO2 SLP046 T00390006
PASC 151453Z 22017KT 10SM OVC120 03/00 A2970 RMK AO2 SLP058 T00330000 56027